sensor_id;sensor_type;location;lat;lon;timestamp;temperature;humidity
298;DHT22;133;49.626;9.680;2023-06-14T00:01:32;16.70;66.10
298;DHT22;133;49.626;9.680;2023-06-14T00:04:00;16.60;66.10
298;DHT22;133;49.626;9.680;2023-06-14T00:08:53;16.50;66.60
298;DHT22;133;49.626;9.680;2023-06-14T00:11:19;16.40;67.00
298;DHT22;133;49.626;9.680;2023-06-14T00:13:45;16.40;67.40
298;DHT22;133;49.626;9.680;2023-06-14T00:16:11;16.30;67.60
298;DHT22;133;49.626;9.680;2023-06-14T00:18:38;16.20;68.00
298;DHT22;133;49.626;9.680;2023-06-14T00:21:04;16.20;67.60
298;DHT22;133;49.626;9.680;2023-06-14T00:23:30;16.20;67.40
298;DHT22;133;49.626;9.680;2023-06-14T00:25:55;16.20;67.90
298;DHT22;133;49.626;9.680;2023-06-14T00:28:21;16.10;68.00
298;DHT22;133;49.626;9.680;2023-06-14T00:30:47;16.00;68.60
298;DHT22;133;49.626;9.680;2023-06-14T00:33:13;16.00;69.10
298;DHT22;133;49.626;9.680;2023-06-14T00:35:38;15.90;69.00
298;DHT22;133;49.626;9.680;2023-06-14T00:38:04;15.90;69.10
298;DHT22;133;49.626;9.680;2023-06-14T00:40:30;15.80;69.20
298;DHT22;133;49.626;9.680;2023-06-14T00:42:56;15.80;69.70
298;DHT22;133;49.626;9.680;2023-06-14T00:45:21;15.70;69.10
298;DHT22;133;49.626;9.680;2023-06-14T00:47:48;15.70;69.50
298;DHT22;133;49.626;9.680;2023-06-14T00:50:14;15.60;69.80
298;DHT22;133;49.626;9.680;2023-06-14T00:52:40;15.60;70.30
298;DHT22;133;49.626;9.680;2023-06-14T00:55:06;15.50;70.60
298;DHT22;133;49.626;9.680;2023-06-14T00:57:32;15.50;70.60
298;DHT22;133;49.626;9.680;2023-06-14T00:59:58;15.40;71.10
298;DHT22;133;49.626;9.680;2023-06-14T01:02:23;15.30;71.20
298;DHT22;133;49.626;9.680;2023-06-14T01:04:52;15.30;71.70
298;DHT22;133;49.626;9.680;2023-06-14T01:15:45;15.10;71.80
298;DHT22;133;49.626;9.680;2023-06-14T01:18:12;15.10;72.00
298;DHT22;133;49.626;9.680;2023-06-14T01:20:44;15.10;71.90
298;DHT22;133;49.626;9.680;2023-06-14T01:23:11;15.10;71.90
298;DHT22;133;49.626;9.680;2023-06-14T01:25:37;15.10;72.10
298;DHT22;133;49.626;9.680;2023-06-14T01:28:05;15.10;72.20
298;DHT22;133;49.626;9.680;2023-06-14T01:30:40;15.10;71.80
298;DHT22;133;49.626;9.680;2023-06-14T01:33:15;15.10;72.00
298;DHT22;133;49.626;9.680;2023-06-14T01:35:48;15.00;72.30
298;DHT22;133;49.626;9.680;2023-06-14T01:38:14;15.00;72.40
298;DHT22;133;49.626;9.680;2023-06-14T01:40:42;15.00;72.90
298;DHT22;133;49.626;9.680;2023-06-14T01:43:09;15.00;73.00
298;DHT22;133;49.626;9.680;2023-06-14T01:45:36;15.00;73.20
298;DHT22;133;49.626;9.680;2023-06-14T01:48:02;15.00;73.00
298;DHT22;133;49.626;9.680;2023-06-14T01:50:30;15.00;73.20
298;DHT22;133;49.626;9.680;2023-06-14T01:52:56;14.90;73.30
298;DHT22;133;49.626;9.680;2023-06-14T01:55:21;14.80;73.60
298;DHT22;133;49.626;9.680;2023-06-14T01:57:47;14.80;73.90
298;DHT22;133;49.626;9.680;2023-06-14T02:00:14;14.70;73.90
298;DHT22;133;49.626;9.680;2023-06-14T02:02:40;14.70;73.50
298;DHT22;133;49.626;9.680;2023-06-14T02:05:06;14.70;74.20
298;DHT22;133;49.626;9.680;2023-06-14T02:07:32;14.70;73.90
298;DHT22;133;49.626;9.680;2023-06-14T02:09:58;14.70;74.00
298;DHT22;133;49.626;9.680;2023-06-14T02:12:24;14.60;74.10
298;DHT22;133;49.626;9.680;2023-06-14T02:14:50;14.60;74.30
298;DHT22;133;49.626;9.680;2023-06-14T02:17:16;14.60;74.30
298;DHT22;133;49.626;9.680;2023-06-14T02:19:42;14.50;74.50
298;DHT22;133;49.626;9.680;2023-06-14T02:22:08;14.50;74.80
298;DHT22;133;49.626;9.680;2023-06-14T02:24:33;14.50;74.60
298;DHT22;133;49.626;9.680;2023-06-14T02:26:59;14.50;74.80
298;DHT22;133;49.626;9.680;2023-06-14T02:29:25;14.40;75.20
298;DHT22;133;49.626;9.680;2023-06-14T02:31:51;14.40;75.40
298;DHT22;133;49.626;9.680;2023-06-14T02:34:16;14.30;76.10
298;DHT22;133;49.626;9.680;2023-06-14T02:36:43;14.30;75.70
298;DHT22;133;49.626;9.680;2023-06-14T02:39:11;14.30;76.00
298;DHT22;133;49.626;9.680;2023-06-14T02:41:37;14.30;76.00
298;DHT22;133;49.626;9.680;2023-06-14T02:44:03;14.20;76.20
298;DHT22;133;49.626;9.680;2023-06-14T02:46:28;14.20;76.30
298;DHT22;133;49.626;9.680;2023-06-14T02:48:54;14.10;76.20
298;DHT22;133;49.626;9.680;2023-06-14T02:51:20;14.20;76.50
298;DHT22;133;49.626;9.680;2023-06-14T02:53:45;14.10;76.30
298;DHT22;133;49.626;9.680;2023-06-14T02:56:11;14.10;76.20
298;DHT22;133;49.626;9.680;2023-06-14T02:58:37;14.10;76.20
298;DHT22;133;49.626;9.680;2023-06-14T03:01:05;14.00;76.30
298;DHT22;133;49.626;9.680;2023-06-14T03:03:31;14.00;76.20
298;DHT22;133;49.626;9.680;2023-06-14T03:05:57;14.00;76.20
298;DHT22;133;49.626;9.680;2023-06-14T03:08:22;14.00;76.20
298;DHT22;133;49.626;9.680;2023-06-14T03:10:53;13.90;76.50
298;DHT22;133;49.626;9.680;2023-06-14T03:13:19;13.90;76.80
298;DHT22;133;49.626;9.680;2023-06-14T03:15:48;13.90;76.80
298;DHT22;133;49.626;9.680;2023-06-14T03:18:16;13.80;77.00
298;DHT22;133;49.626;9.680;2023-06-14T03:20:42;13.80;77.00
298;DHT22;133;49.626;9.680;2023-06-14T03:23:08;13.80;77.10
298;DHT22;133;49.626;9.680;2023-06-14T03:25:34;13.80;77.40
298;DHT22;133;49.626;9.680;2023-06-14T03:28:04;13.80;77.70
298;DHT22;133;49.626;9.680;2023-06-14T03:30:30;13.80;77.50
298;DHT22;133;49.626;9.680;2023-06-14T03:32:57;13.80;77.40
298;DHT22;133;49.626;9.680;2023-06-14T03:35:23;13.80;77.80
298;DHT22;133;49.626;9.680;2023-06-14T03:37:49;13.80;77.60
298;DHT22;133;49.626;9.680;2023-06-14T03:40:18;13.80;77.60
298;DHT22;133;49.626;9.680;2023-06-14T03:42:44;13.80;77.50
298;DHT22;133;49.626;9.680;2023-06-14T03:45:09;13.80;77.80
298;DHT22;133;49.626;9.680;2023-06-14T03:47:35;13.70;77.80
298;DHT22;133;49.626;9.680;2023-06-14T03:50:02;13.70;78.10
298;DHT22;133;49.626;9.680;2023-06-14T03:52:28;13.60;78.80
298;DHT22;133;49.626;9.680;2023-06-14T03:54:53;13.60;78.60
298;DHT22;133;49.626;9.680;2023-06-14T03:57:19;13.60;78.70
298;DHT22;133;49.626;9.680;2023-06-14T03:59:45;13.70;78.60
298;DHT22;133;49.626;9.680;2023-06-14T04:02:12;13.70;78.30
298;DHT22;133;49.626;9.680;2023-06-14T04:04:41;13.80;78.20
298;DHT22;133;49.626;9.680;2023-06-14T04:07:10;13.80;78.40
298;DHT22;133;49.626;9.680;2023-06-14T04:09:37;13.90;78.30
298;DHT22;133;49.626;9.680;2023-06-14T04:12:03;13.90;78.70
298;DHT22;133;49.626;9.680;2023-06-14T04:14:29;13.90;78.40
298;DHT22;133;49.626;9.680;2023-06-14T04:16:56;13.80;78.70
298;DHT22;133;49.626;9.680;2023-06-14T04:19:21;13.80;79.10
298;DHT22;133;49.626;9.680;2023-06-14T04:21:47;13.90;78.30
298;DHT22;133;49.626;9.680;2023-06-14T04:24:13;13.90;78.30
298;DHT22;133;49.626;9.680;2023-06-14T04:26:43;13.90;77.70
298;DHT22;133;49.626;9.680;2023-06-14T04:29:17;13.80;77.70
298;DHT22;133;49.626;9.680;2023-06-14T04:31:46;13.80;77.80
298;DHT22;133;49.626;9.680;2023-06-14T04:34:12;13.80;78.00
298;DHT22;133;49.626;9.680;2023-06-14T04:36:44;13.90;78.00
298;DHT22;133;49.626;9.680;2023-06-14T04:39:17;14.00;78.50
298;DHT22;133;49.626;9.680;2023-06-14T04:41:44;14.10;79.00
298;DHT22;133;49.626;9.680;2023-06-14T04:44:09;14.10;79.00
298;DHT22;133;49.626;9.680;2023-06-14T04:46:36;14.20;79.20
298;DHT22;133;49.626;9.680;2023-06-14T04:49:22;14.20;77.50
298;DHT22;133;49.626;9.680;2023-06-14T04:51:48;14.40;76.10
298;DHT22;133;49.626;9.680;2023-06-14T04:54:23;14.40;75.60
298;DHT22;133;49.626;9.680;2023-06-14T04:56:50;14.30;75.90
298;DHT22;133;49.626;9.680;2023-06-14T04:59:16;14.30;76.10
298;DHT22;133;49.626;9.680;2023-06-14T05:01:42;14.40;76.00
298;DHT22;133;49.626;9.680;2023-06-14T05:04:13;14.40;76.10
298;DHT22;133;49.626;9.680;2023-06-14T05:06:38;14.50;75.80
298;DHT22;133;49.626;9.680;2023-06-14T05:09:04;14.40;75.90
298;DHT22;133;49.626;9.680;2023-06-14T05:11:30;14.40;76.10
298;DHT22;133;49.626;9.680;2023-06-14T05:13:56;14.30;76.30
298;DHT22;133;49.626;9.680;2023-06-14T05:16:23;14.40;76.20
298;DHT22;133;49.626;9.680;2023-06-14T05:18:50;14.50;76.10
298;DHT22;133;49.626;9.680;2023-06-14T05:21:17;14.50;76.00
298;DHT22;133;49.626;9.680;2023-06-14T05:23:44;14.50;75.90
298;DHT22;133;49.626;9.680;2023-06-14T05:26:10;14.60;76.20
298;DHT22;133;49.626;9.680;2023-06-14T05:28:36;14.70;75.60
298;DHT22;133;49.626;9.680;2023-06-14T05:31:02;14.80;75.30
298;DHT22;133;49.626;9.680;2023-06-14T05:33:28;14.70;75.60
298;DHT22;133;49.626;9.680;2023-06-14T05:35:54;14.80;76.10
298;DHT22;133;49.626;9.680;2023-06-14T05:38:20;14.90;75.30
298;DHT22;133;49.626;9.680;2023-06-14T05:40:46;15.00;75.70
298;DHT22;133;49.626;9.680;2023-06-14T05:43:12;15.00;75.60
298;DHT22;133;49.626;9.680;2023-06-14T05:45:37;15.10;75.30
298;DHT22;133;49.626;9.680;2023-06-14T05:48:03;15.20;75.00
298;DHT22;133;49.626;9.680;2023-06-14T05:50:29;15.30;74.90
298;DHT22;133;49.626;9.680;2023-06-14T05:52:55;15.30;74.50
298;DHT22;133;49.626;9.680;2023-06-14T05:55:20;15.40;74.30
298;DHT22;133;49.626;9.680;2023-06-14T05:57:46;15.60;74.50
298;DHT22;133;49.626;9.680;2023-06-14T06:00:13;15.80;74.30
298;DHT22;133;49.626;9.680;2023-06-14T06:02:43;15.90;74.40
298;DHT22;133;49.626;9.680;2023-06-14T06:05:10;16.10;73.80
298;DHT22;133;49.626;9.680;2023-06-14T06:07:36;16.20;72.90
298;DHT22;133;49.626;9.680;2023-06-14T06:10:03;16.20;73.00
298;DHT22;133;49.626;9.680;2023-06-14T06:12:30;16.30;73.90
298;DHT22;133;49.626;9.680;2023-06-14T06:14:56;16.40;73.20
298;DHT22;133;49.626;9.680;2023-06-14T06:17:22;16.40;72.70
298;DHT22;133;49.626;9.680;2023-06-14T06:19:47;16.50;72.10
298;DHT22;133;49.626;9.680;2023-06-14T06:22:13;16.70;72.20
298;DHT22;133;49.626;9.680;2023-06-14T06:24:38;16.80;71.80
298;DHT22;133;49.626;9.680;2023-06-14T06:27:04;16.90;71.50
298;DHT22;133;49.626;9.680;2023-06-14T06:29:30;17.00;71.60
298;DHT22;133;49.626;9.680;2023-06-14T06:31:55;17.10;71.10
298;DHT22;133;49.626;9.680;2023-06-14T06:34:21;17.30;70.90
298;DHT22;133;49.626;9.680;2023-06-14T06:36:47;17.30;70.10
298;DHT22;133;49.626;9.680;2023-06-14T06:39:13;17.50;69.80
298;DHT22;133;49.626;9.680;2023-06-14T06:41:40;17.50;69.80
298;DHT22;133;49.626;9.680;2023-06-14T06:44:07;17.70;70.30
298;DHT22;133;49.626;9.680;2023-06-14T06:46:33;17.70;69.60
298;DHT22;133;49.626;9.680;2023-06-14T06:49:00;17.80;69.50
298;DHT22;133;49.626;9.680;2023-06-14T06:51:25;17.90;68.80
298;DHT22;133;49.626;9.680;2023-06-14T06:53:54;18.00;68.60
298;DHT22;133;49.626;9.680;2023-06-14T06:56:21;18.10;68.30
298;DHT22;133;49.626;9.680;2023-06-14T06:58:51;18.20;68.00
298;DHT22;133;49.626;9.680;2023-06-14T07:01:17;18.30;68.00
298;DHT22;133;49.626;9.680;2023-06-14T07:03:44;18.40;68.20
298;DHT22;133;49.626;9.680;2023-06-14T07:06:09;18.50;67.20
298;DHT22;133;49.626;9.680;2023-06-14T07:08:36;18.50;66.90
298;DHT22;133;49.626;9.680;2023-06-14T07:11:04;18.50;67.30
298;DHT22;133;49.626;9.680;2023-06-14T07:13:30;18.60;66.80
298;DHT22;133;49.626;9.680;2023-06-14T07:15:59;18.70;66.70
298;DHT22;133;49.626;9.680;2023-06-14T07:18:26;18.70;66.70
298;DHT22;133;49.626;9.680;2023-06-14T07:20:52;18.90;66.90
298;DHT22;133;49.626;9.680;2023-06-14T07:23:22;18.90;67.00
298;DHT22;133;49.626;9.680;2023-06-14T07:25:48;19.00;66.90
298;DHT22;133;49.626;9.680;2023-06-14T07:28:14;19.10;66.10
298;DHT22;133;49.626;9.680;2023-06-14T07:30:39;19.20;66.10
298;DHT22;133;49.626;9.680;2023-06-14T07:33:05;19.30;66.00
298;DHT22;133;49.626;9.680;2023-06-14T07:35:31;19.40;65.40
298;DHT22;133;49.626;9.680;2023-06-14T07:37:57;19.50;65.60
298;DHT22;133;49.626;9.680;2023-06-14T07:40:22;19.70;65.40
298;DHT22;133;49.626;9.680;2023-06-14T07:42:48;19.80;64.60
298;DHT22;133;49.626;9.680;2023-06-14T07:45:16;19.80;64.10
298;DHT22;133;49.626;9.680;2023-06-14T07:47:42;19.90;63.90
298;DHT22;133;49.626;9.680;2023-06-14T07:50:08;20.00;64.60
298;DHT22;133;49.626;9.680;2023-06-14T07:52:34;20.10;64.20
298;DHT22;133;49.626;9.680;2023-06-14T07:54:59;20.20;63.90
298;DHT22;133;49.626;9.680;2023-06-14T07:57:25;20.30;64.00
298;DHT22;133;49.626;9.680;2023-06-14T07:59:51;20.30;62.90
298;DHT22;133;49.626;9.680;2023-06-14T08:02:17;20.40;63.00
298;DHT22;133;49.626;9.680;2023-06-14T08:04:43;20.50;63.00
298;DHT22;133;49.626;9.680;2023-06-14T08:07:09;20.60;62.30
298;DHT22;133;49.626;9.680;2023-06-14T08:09:35;20.70;62.60
298;DHT22;133;49.626;9.680;2023-06-14T08:12:04;20.80;62.20
298;DHT22;133;49.626;9.680;2023-06-14T08:14:33;20.90;61.70
298;DHT22;133;49.626;9.680;2023-06-14T08:16:58;21.00;62.00
298;DHT22;133;49.626;9.680;2023-06-14T08:19:24;21.20;61.00
298;DHT22;133;49.626;9.680;2023-06-14T08:21:50;21.20;60.70
298;DHT22;133;49.626;9.680;2023-06-14T08:24:16;21.30;60.60
298;DHT22;133;49.626;9.680;2023-06-14T08:26:42;21.40;61.20
298;DHT22;133;49.626;9.680;2023-06-14T08:29:08;21.50;61.50
298;DHT22;133;49.626;9.680;2023-06-14T08:31:34;21.50;60.60
298;DHT22;133;49.626;9.680;2023-06-14T08:33:59;21.60;60.60
298;DHT22;133;49.626;9.680;2023-06-14T08:36:25;21.70;60.30
298;DHT22;133;49.626;9.680;2023-06-14T08:38:51;21.80;60.30
298;DHT22;133;49.626;9.680;2023-06-14T08:41:23;22.10;60.30
298;DHT22;133;49.626;9.680;2023-06-14T08:43:50;22.50;58.90
298;DHT22;133;49.626;9.680;2023-06-14T08:46:17;23.40;58.00
298;DHT22;133;49.626;9.680;2023-06-14T08:48:51;25.10;56.20
298;DHT22;133;49.626;9.680;2023-06-14T08:51:25;27.10;52.00
298;DHT22;133;49.626;9.680;2023-06-14T08:53:55;29.20;48.30
298;DHT22;133;49.626;9.680;2023-06-14T08:56:28;31.10;44.10
298;DHT22;133;49.626;9.680;2023-06-14T08:58:55;32.70;42.00
298;DHT22;133;49.626;9.680;2023-06-14T09:01:22;34.10;40.00
298;DHT22;133;49.626;9.680;2023-06-14T09:03:49;35.30;37.80
298;DHT22;133;49.626;9.680;2023-06-14T09:06:46;36.00;37.00
298;DHT22;133;49.626;9.680;2023-06-14T09:09:12;36.20;36.50
298;DHT22;133;49.626;9.680;2023-06-14T09:15:10;37.40;35.20
298;DHT22;133;49.626;9.680;2023-06-14T09:17:43;37.90;34.00
298;DHT22;133;49.626;9.680;2023-06-14T09:20:09;38.20;33.60
298;DHT22;133;49.626;9.680;2023-06-14T09:22:37;37.80;34.00
298;DHT22;133;49.626;9.680;2023-06-14T09:25:04;38.10;33.80
298;DHT22;133;49.626;9.680;2023-06-14T09:27:31;37.40;33.90
298;DHT22;133;49.626;9.680;2023-06-14T09:29:57;37.30;34.30
298;DHT22;133;49.626;9.680;2023-06-14T09:32:25;37.90;33.80
298;DHT22;133;49.626;9.680;2023-06-14T09:34:51;37.00;34.60
298;DHT22;133;49.626;9.680;2023-06-14T09:37:30;36.50;35.60
298;DHT22;133;49.626;9.680;2023-06-14T09:39:59;37.30;34.30
298;DHT22;133;49.626;9.680;2023-06-14T09:42:25;36.70;34.50
298;DHT22;133;49.626;9.680;2023-06-14T09:44:53;35.90;35.30
298;DHT22;133;49.626;9.680;2023-06-14T09:47:19;34.60;35.90
298;DHT22;133;49.626;9.680;2023-06-14T09:49:46;33.90;37.60
298;DHT22;133;49.626;9.680;2023-06-14T09:52:17;34.10;36.70
298;DHT22;133;49.626;9.680;2023-06-14T09:54:44;33.80;37.20
298;DHT22;133;49.626;9.680;2023-06-14T09:57:19;32.90;38.30
298;DHT22;133;49.626;9.680;2023-06-14T09:59:47;31.70;39.90
298;DHT22;133;49.626;9.680;2023-06-14T10:02:31;31.40;41.20
298;DHT22;133;49.626;9.680;2023-06-14T10:05:07;31.10;41.40
298;DHT22;133;49.626;9.680;2023-06-14T10:08:10;31.00;40.90
298;DHT22;133;49.626;9.680;2023-06-14T10:10:39;30.60;41.40
298;DHT22;133;49.626;9.680;2023-06-14T10:13:04;30.10;41.70
298;DHT22;133;49.626;9.680;2023-06-14T10:15:55;29.50;42.50
298;DHT22;133;49.626;9.680;2023-06-14T10:18:31;30.40;41.80
298;DHT22;133;49.626;9.680;2023-06-14T10:21:32;31.30;40.00
298;DHT22;133;49.626;9.680;2023-06-14T10:24:03;32.10;39.20
298;DHT22;133;49.626;9.680;2023-06-14T10:26:30;31.60;38.90
298;DHT22;133;49.626;9.680;2023-06-14T10:29:08;30.60;40.00
298;DHT22;133;49.626;9.680;2023-06-14T10:31:53;30.10;39.40
298;DHT22;133;49.626;9.680;2023-06-14T10:34:31;30.20;39.90
298;DHT22;133;49.626;9.680;2023-06-14T10:37:11;29.40;41.90
298;DHT22;133;49.626;9.680;2023-06-14T10:39:41;28.90;43.10
298;DHT22;133;49.626;9.680;2023-06-14T10:42:07;29.30;42.40
298;DHT22;133;49.626;9.680;2023-06-14T10:47:07;29.60;42.20
298;DHT22;133;49.626;9.680;2023-06-14T10:49:48;29.50;41.90
298;DHT22;133;49.626;9.680;2023-06-14T10:52:24;30.10;40.30
298;DHT22;133;49.626;9.680;2023-06-14T10:55:10;30.60;39.60
298;DHT22;133;49.626;9.680;2023-06-14T10:58:02;30.30;39.80
298;DHT22;133;49.626;9.680;2023-06-14T11:00:29;29.60;41.20
298;DHT22;133;49.626;9.680;2023-06-14T11:03:31;28.70;42.00
298;DHT22;133;49.626;9.680;2023-06-14T11:06:14;28.30;42.80
298;DHT22;133;49.626;9.680;2023-06-14T11:09:08;27.40;44.20
298;DHT22;133;49.626;9.680;2023-06-14T11:11:38;26.90;45.40
298;DHT22;133;49.626;9.680;2023-06-14T11:14:06;26.50;46.40
298;DHT22;133;49.626;9.680;2023-06-14T11:16:33;26.30;46.60
298;DHT22;133;49.626;9.680;2023-06-14T11:19:01;26.30;46.80
298;DHT22;133;49.626;9.680;2023-06-14T11:21:28;26.40;46.90
298;DHT22;133;49.626;9.680;2023-06-14T11:23:57;26.80;47.10
298;DHT22;133;49.626;9.680;2023-06-14T11:26:27;27.60;46.10
298;DHT22;133;49.626;9.680;2023-06-14T11:28:58;28.40;44.20
298;DHT22;133;49.626;9.680;2023-06-14T11:31:28;28.90;43.30
298;DHT22;133;49.626;9.680;2023-06-14T11:34:01;29.60;42.10
298;DHT22;133;49.626;9.680;2023-06-14T11:36:30;30.60;41.30
298;DHT22;133;49.626;9.680;2023-06-14T11:39:03;31.60;40.10
298;DHT22;133;49.626;9.680;2023-06-14T11:41:43;32.20;39.50
298;DHT22;133;49.626;9.680;2023-06-14T11:44:12;32.80;38.30
298;DHT22;133;49.626;9.680;2023-06-14T11:46:39;33.10;37.80
298;DHT22;133;49.626;9.680;2023-06-14T11:49:06;32.70;38.10
298;DHT22;133;49.626;9.680;2023-06-14T11:51:33;32.10;38.70
298;DHT22;133;49.626;9.680;2023-06-14T11:54:03;32.50;38.80
298;DHT22;133;49.626;9.680;2023-06-14T11:56:30;33.20;37.90
298;DHT22;133;49.626;9.680;2023-06-14T11:59:07;33.40;37.40
298;DHT22;133;49.626;9.680;2023-06-14T12:01:43;32.90;36.90
298;DHT22;133;49.626;9.680;2023-06-14T12:05:20;32.30;37.60
298;DHT22;133;49.626;9.680;2023-06-14T12:07:30;32.90;37.80
298;DHT22;133;49.626;9.680;2023-06-14T12:12:28;33.70;36.60
298;DHT22;133;49.626;9.680;2023-06-14T12:14:57;34.10;36.90
298;DHT22;133;49.626;9.680;2023-06-14T12:17:26;34.20;35.80
298;DHT22;133;49.626;9.680;2023-06-14T12:19:57;34.80;35.30
298;DHT22;133;49.626;9.680;2023-06-14T12:22:28;35.40;34.70
298;DHT22;133;49.626;9.680;2023-06-14T12:24:54;35.50;34.80
298;DHT22;133;49.626;9.680;2023-06-14T12:27:29;35.60;34.00
298;DHT22;133;49.626;9.680;2023-06-14T12:30:01;35.10;34.30
298;DHT22;133;49.626;9.680;2023-06-14T12:32:30;33.80;34.60
298;DHT22;133;49.626;9.680;2023-06-14T12:34:59;33.40;35.80
298;DHT22;133;49.626;9.680;2023-06-14T12:37:24;33.00;35.60
298;DHT22;133;49.626;9.680;2023-06-14T12:39:50;32.90;36.90
298;DHT22;133;49.626;9.680;2023-06-14T12:42:16;33.10;37.00
298;DHT22;133;49.626;9.680;2023-06-14T12:44:42;33.10;37.30
298;DHT22;133;49.626;9.680;2023-06-14T12:47:08;33.30;36.70
298;DHT22;133;49.626;9.680;2023-06-14T12:49:33;33.10;36.50
298;DHT22;133;49.626;9.680;2023-06-14T12:51:59;33.20;36.00
298;DHT22;133;49.626;9.680;2023-06-14T12:54:25;33.50;36.90
298;DHT22;133;49.626;9.680;2023-06-14T12:56:51;33.80;35.90
298;DHT22;133;49.626;9.680;2023-06-14T12:59:18;33.80;35.50
298;DHT22;133;49.626;9.680;2023-06-14T13:01:44;33.50;35.90
298;DHT22;133;49.626;9.680;2023-06-14T13:04:10;33.60;35.70
298;DHT22;133;49.626;9.680;2023-06-14T13:06:36;33.70;35.50
298;DHT22;133;49.626;9.680;2023-06-14T13:09:04;34.10;34.50
298;DHT22;133;49.626;9.680;2023-06-14T13:11:31;34.30;35.00
298;DHT22;133;49.626;9.680;2023-06-14T13:13:56;33.80;35.20
298;DHT22;133;49.626;9.680;2023-06-14T13:16:22;33.30;36.10
298;DHT22;133;49.626;9.680;2023-06-14T13:18:48;32.70;36.70
298;DHT22;133;49.626;9.680;2023-06-14T13:21:14;32.50;36.80
298;DHT22;133;49.626;9.680;2023-06-14T13:23:39;32.20;37.20
298;DHT22;133;49.626;9.680;2023-06-14T13:26:05;32.40;37.00
298;DHT22;133;49.626;9.680;2023-06-14T13:28:31;32.50;36.70
298;DHT22;133;49.626;9.680;2023-06-14T13:30:58;32.60;36.10
298;DHT22;133;49.626;9.680;2023-06-14T13:33:23;32.70;36.40
298;DHT22;133;49.626;9.680;2023-06-14T13:35:49;32.40;36.20
298;DHT22;133;49.626;9.680;2023-06-14T13:38:18;32.50;36.40
298;DHT22;133;49.626;9.680;2023-06-14T13:40:43;32.70;36.90
298;DHT22;133;49.626;9.680;2023-06-14T13:43:09;32.30;35.50
298;DHT22;133;49.626;9.680;2023-06-14T13:45:35;32.20;36.60
298;DHT22;133;49.626;9.680;2023-06-14T13:48:01;31.80;36.60
298;DHT22;133;49.626;9.680;2023-06-14T13:50:27;31.80;36.40
298;DHT22;133;49.626;9.680;2023-06-14T13:52:53;32.10;36.90
298;DHT22;133;49.626;9.680;2023-06-14T13:55:18;32.10;36.60
298;DHT22;133;49.626;9.680;2023-06-14T13:57:44;32.10;37.10
298;DHT22;133;49.626;9.680;2023-06-14T14:00:11;32.10;38.20
298;DHT22;133;49.626;9.680;2023-06-14T14:02:37;32.40;37.10
298;DHT22;133;49.626;9.680;2023-06-14T14:05:03;32.20;36.60
298;DHT22;133;49.626;9.680;2023-06-14T14:07:29;32.00;36.80
298;DHT22;133;49.626;9.680;2023-06-14T14:09:55;31.90;36.80
298;DHT22;133;49.626;9.680;2023-06-14T14:12:23;31.70;36.80
298;DHT22;133;49.626;9.680;2023-06-14T14:14:49;31.30;36.90
298;DHT22;133;49.626;9.680;2023-06-14T14:17:15;30.90;38.60
298;DHT22;133;49.626;9.680;2023-06-14T14:19:41;30.40;38.30
298;DHT22;133;49.626;9.680;2023-06-14T14:22:07;30.30;37.70
298;DHT22;133;49.626;9.680;2023-06-14T14:24:32;30.00;38.60
298;DHT22;133;49.626;9.680;2023-06-14T14:26:58;29.80;39.60
298;DHT22;133;49.626;9.680;2023-06-14T14:29:25;29.60;39.00
298;DHT22;133;49.626;9.680;2023-06-14T14:31:54;29.70;39.20
298;DHT22;133;49.626;9.680;2023-06-14T14:34:20;29.80;39.20
298;DHT22;133;49.626;9.680;2023-06-14T14:36:47;29.90;38.40
298;DHT22;133;49.626;9.680;2023-06-14T14:39:13;29.90;38.40
298;DHT22;133;49.626;9.680;2023-06-14T14:41:39;29.70;38.50
298;DHT22;133;49.626;9.680;2023-06-14T14:44:05;29.70;39.40
298;DHT22;133;49.626;9.680;2023-06-14T14:46:31;30.00;39.10
298;DHT22;133;49.626;9.680;2023-06-14T14:48:58;30.30;38.30
298;DHT22;133;49.626;9.680;2023-06-14T14:51:23;30.60;38.00
298;DHT22;133;49.626;9.680;2023-06-14T14:53:49;30.50;38.20
298;DHT22;133;49.626;9.680;2023-06-14T14:56:15;30.00;39.20
298;DHT22;133;49.626;9.680;2023-06-14T14:58:40;30.10;39.10
298;DHT22;133;49.626;9.680;2023-06-14T15:01:06;29.80;38.80
298;DHT22;133;49.626;9.680;2023-06-14T15:03:32;29.90;39.80
298;DHT22;133;49.626;9.680;2023-06-14T15:05:58;29.70;40.00
298;DHT22;133;49.626;9.680;2023-06-14T15:08:23;30.00;40.20
298;DHT22;133;49.626;9.680;2023-06-14T15:10:49;30.30;39.00
298;DHT22;133;49.626;9.680;2023-06-14T15:13:15;30.40;38.10
298;DHT22;133;49.626;9.680;2023-06-14T15:15:41;30.70;37.90
298;DHT22;133;49.626;9.680;2023-06-14T15:18:07;30.70;38.00
298;DHT22;133;49.626;9.680;2023-06-14T15:20:32;30.90;36.90
298;DHT22;133;49.626;9.680;2023-06-14T15:22:58;31.00;36.60
298;DHT22;133;49.626;9.680;2023-06-14T15:25:28;30.30;37.70
298;DHT22;133;49.626;9.680;2023-06-14T15:27:55;30.40;37.80
298;DHT22;133;49.626;9.680;2023-06-14T15:30:21;30.40;38.10
298;DHT22;133;49.626;9.680;2023-06-14T15:32:48;30.60;37.60
298;DHT22;133;49.626;9.680;2023-06-14T15:35:16;30.60;37.80
298;DHT22;133;49.626;9.680;2023-06-14T15:37:41;30.50;37.80
298;DHT22;133;49.626;9.680;2023-06-14T15:40:07;30.30;37.90
298;DHT22;133;49.626;9.680;2023-06-14T15:42:33;29.90;38.70
298;DHT22;133;49.626;9.680;2023-06-14T15:44:59;29.50;39.50
298;DHT22;133;49.626;9.680;2023-06-14T15:47:25;29.40;39.40
298;DHT22;133;49.626;9.680;2023-06-14T15:49:51;29.10;39.30
298;DHT22;133;49.626;9.680;2023-06-14T15:52:16;28.90;39.20
298;DHT22;133;49.626;9.680;2023-06-14T15:54:42;28.50;39.40
298;DHT22;133;49.626;9.680;2023-06-14T15:57:08;28.50;39.80
298;DHT22;133;49.626;9.680;2023-06-14T15:59:35;28.60;39.30
298;DHT22;133;49.626;9.680;2023-06-14T16:02:00;28.80;39.10
298;DHT22;133;49.626;9.680;2023-06-14T16:04:27;29.10;39.20
298;DHT22;133;49.626;9.680;2023-06-14T16:06:54;29.30;39.00
298;DHT22;133;49.626;9.680;2023-06-14T16:09:22;29.40;38.40
298;DHT22;133;49.626;9.680;2023-06-14T16:11:48;29.40;38.10
298;DHT22;133;49.626;9.680;2023-06-14T16:14:14;29.30;38.60
298;DHT22;133;49.626;9.680;2023-06-14T16:16:40;29.40;38.80
298;DHT22;133;49.626;9.680;2023-06-14T16:19:06;29.40;39.60
298;DHT22;133;49.626;9.680;2023-06-14T16:21:31;29.40;38.70
298;DHT22;133;49.626;9.680;2023-06-14T16:24:05;29.30;38.30
298;DHT22;133;49.626;9.680;2023-06-14T16:26:31;29.30;38.10
298;DHT22;133;49.626;9.680;2023-06-14T16:28:57;29.10;38.30
298;DHT22;133;49.626;9.680;2023-06-14T16:31:22;29.10;38.30
298;DHT22;133;49.626;9.680;2023-06-14T16:33:48;29.00;38.20
298;DHT22;133;49.626;9.680;2023-06-14T16:36:24;28.70;38.80
298;DHT22;133;49.626;9.680;2023-06-14T16:38:50;28.50;39.70
298;DHT22;133;49.626;9.680;2023-06-14T16:41:15;28.20;40.60
298;DHT22;133;49.626;9.680;2023-06-14T16:43:41;28.10;40.10
298;DHT22;133;49.626;9.680;2023-06-14T16:46:07;27.90;40.40
298;DHT22;133;49.626;9.680;2023-06-14T16:48:33;27.70;40.90
298;DHT22;133;49.626;9.680;2023-06-14T16:50:59;27.40;41.70
298;DHT22;133;49.626;9.680;2023-06-14T16:53:25;27.30;41.80
298;DHT22;133;49.626;9.680;2023-06-14T16:55:51;27.20;42.10
298;DHT22;133;49.626;9.680;2023-06-14T16:58:16;27.00;41.90